sensor_id;sensor_type;location;lat;lon;timestamp;pressure;altitude;pressure_sealevel;temperature;humidity
22389;BME280;11362;48.102;11.620;2024-03-02T00:00:43;94164.25;;;24.51;34.71
22389;BME280;11362;48.102;11.620;2024-03-02T00:03:08;94163.91;;;24.49;34.68
22389;BME280;11362;48.102;11.620;2024-03-02T00:05:34;94153.59;;;24.49;34.66
22389;BME280;11362;48.102;11.620;2024-03-02T00:07:59;94156.38;;;24.49;34.62
22389;BME280;11362;48.102;11.620;2024-03-02T00:10:26;94156.38;;;24.49;34.70
22389;BME280;11362;48.102;11.620;2024-03-02T00:12:52;94155.78;;;24.54;34.54
22389;BME280;11362;48.102;11.620;2024-03-02T00:15:40;94156.13;;;24.56;34.52
22389;BME280;11362;48.102;11.620;2024-03-02T00:18:06;94157.03;;;24.53;34.59
22389;BME280;11362;48.102;11.620;2024-03-02T00:20:32;94149.59;;;24.50;34.73
22389;BME280;11362;48.102;11.620;2024-03-02T00:23:02;94121.63;;;24.45;34.80
22389;BME280;11362;48.102;11.620;2024-03-02T00:25:42;94114.28;;;24.51;34.62
22389;BME280;11362;48.102;11.620;2024-03-02T00:28:35;94140.81;;;24.52;34.68
22389;BME280;11362;48.102;11.620;2024-03-02T00:31:05;94139.13;;;24.54;34.52
22389;BME280;11362;48.102;11.620;2024-03-02T00:33:49;94139.25;;;24.51;34.70
22389;BME280;11362;48.102;11.620;2024-03-02T00:36:16;94145.59;;;24.51;34.51
22389;BME280;11362;48.102;11.620;2024-03-02T00:38:51;94142.81;;;24.51;34.51
22389;BME280;11362;48.102;11.620;2024-03-02T00:41:27;94141.28;;;24.50;34.72
22389;BME280;11362;48.102;11.620;2024-03-02T00:44:00;94143.56;;;24.52;34.46
22389;BME280;11362;48.102;11.620;2024-03-02T00:46:28;94133.25;;;24.52;34.74
22389;BME280;11362;48.102;11.620;2024-03-02T00:48:58;94132.81;;;24.54;34.52
22389;BME280;11362;48.102;11.620;2024-03-02T00:51:26;94134.38;;;24.55;34.51
22389;BME280;11362;48.102;11.620;2024-03-02T00:53:53;94132.03;;;24.53;34.61
22389;BME280;11362;48.102;11.620;2024-03-02T00:56:18;94133.56;;;24.54;34.52
22389;BME280;11362;48.102;11.620;2024-03-02T00:58:44;94118.84;;;24.57;34.52
22389;BME280;11362;48.102;11.620;2024-03-02T01:01:09;94122.38;;;24.58;34.37
22389;BME280;11362;48.102;11.620;2024-03-02T01:03:35;94122.47;;;24.54;34.40
22389;BME280;11362;48.102;11.620;2024-03-02T01:06:00;94116.94;;;24.54;34.50
22389;BME280;11362;48.102;11.620;2024-03-02T01:08:26;94113.28;;;24.57;34.50
22389;BME280;11362;48.102;11.620;2024-03-02T01:10:51;94119.38;;;24.52;34.41
22389;BME280;11362;48.102;11.620;2024-03-02T01:13:16;94119.91;;;24.60;34.39
22389;BME280;11362;48.102;11.620;2024-03-02T01:15:42;94124.72;;;24.59;34.27
22389;BME280;11362;48.102;11.620;2024-03-02T01:18:07;94124.50;;;24.54;34.52
22389;BME280;11362;48.102;11.620;2024-03-02T01:20:32;94127.94;;;24.58;34.35
22389;BME280;11362;48.102;11.620;2024-03-02T01:22:57;94123.25;;;24.55;34.56
22389;BME280;11362;48.102;11.620;2024-03-02T01:25:23;94129.69;;;24.52;34.47
22389;BME280;11362;48.102;11.620;2024-03-02T01:27:48;94126.69;;;24.59;34.27
22389;BME280;11362;48.102;11.620;2024-03-02T01:30:14;94123.16;;;24.58;34.28
22389;BME280;11362;48.102;11.620;2024-03-02T01:32:39;94134.38;;;24.55;34.54
22389;BME280;11362;48.102;11.620;2024-03-02T01:35:05;94135.25;;;24.52;34.57
22389;BME280;11362;48.102;11.620;2024-03-02T01:37:31;94133.69;;;24.51;34.48
22389;BME280;11362;48.102;11.620;2024-03-02T01:39:56;94128.38;;;24.56;34.53
22389;BME280;11362;48.102;11.620;2024-03-02T01:42:21;94132.38;;;24.55;34.38
22389;BME280;11362;48.102;11.620;2024-03-02T01:44:47;94121.28;;;24.55;34.32
22389;BME280;11362;48.102;11.620;2024-03-02T01:47:12;94118.16;;;24.53;34.48
22389;BME280;11362;48.102;11.620;2024-03-02T01:49:37;94122.47;;;24.54;34.25
22389;BME280;11362;48.102;11.620;2024-03-02T01:52:03;94118.59;;;24.52;34.36
22389;BME280;11362;48.102;11.620;2024-03-02T01:54:28;94126.16;;;24.51;34.77
22389;BME280;11362;48.102;11.620;2024-03-02T01:56:53;94124.94;;;24.52;34.53
22389;BME280;11362;48.102;11.620;2024-03-02T01:59:19;94120.94;;;24.53;34.33
22389;BME280;11362;48.102;11.620;2024-03-02T02:01:44;94115.81;;;24.52;34.35
22389;BME280;11362;48.102;11.620;2024-03-02T02:04:09;94115.38;;;24.53;34.52
22389;BME280;11362;48.102;11.620;2024-03-02T02:06:34;94111.84;;;24.53;34.57
22389;BME280;11362;48.102;11.620;2024-03-02T02:09:00;94109.19;;;24.49;34.30
22389;BME280;11362;48.102;11.620;2024-03-02T02:11:25;94107.63;;;24.48;34.69
22389;BME280;11362;48.102;11.620;2024-03-02T02:13:51;94103.50;;;24.53;34.39
22389;BME280;11362;48.102;11.620;2024-03-02T02:16:16;94092.19;;;24.47;34.47
22389;BME280;11362;48.102;11.620;2024-03-02T02:18:41;94092.97;;;24.48;34.51
22389;BME280;11362;48.102;11.620;2024-03-02T02:21:06;94098.97;;;24.46;34.48
22389;BME280;11362;48.102;11.620;2024-03-02T02:23:32;94091.09;;;24.45;34.48
22389;BME280;11362;48.102;11.620;2024-03-02T02:25:57;94081.44;;;24.49;34.33
22389;BME280;11362;48.102;11.620;2024-03-02T02:28:22;94083.88;;;24.47;34.54
22389;BME280;11362;48.102;11.620;2024-03-02T02:30:47;94081.88;;;24.48;34.40
22389;BME280;11362;48.102;11.620;2024-03-02T02:33:13;94082.00;;;24.44;34.48
22389;BME280;11362;48.102;11.620;2024-03-02T02:35:38;94086.31;;;24.45;34.43
22389;BME280;11362;48.102;11.620;2024-03-02T02:38:04;94084.00;;;24.44;34.55
22389;BME280;11362;48.102;11.620;2024-03-02T02:40:29;94087.09;;;24.46;34.61
22389;BME280;11362;48.102;11.620;2024-03-02T02:42:54;94079.97;;;24.45;34.46
22389;BME280;11362;48.102;11.620;2024-03-02T02:45:20;94081.09;;;24.47;34.52
22389;BME280;11362;48.102;11.620;2024-03-02T02:47:45;94077.56;;;24.47;34.52
22389;BME280;11362;48.102;11.620;2024-03-02T02:50:11;94076.13;;;24.42;34.46
22389;BME280;11362;48.102;11.620;2024-03-02T02:52:38;94081.09;;;24.47;34.64
22389;BME280;11362;48.102;11.620;2024-03-02T02:55:04;94074.00;;;24.46;34.37
22389;BME280;11362;48.102;11.620;2024-03-02T02:57:34;94080.91;;;24.42;34.50
22389;BME280;11362;48.102;11.620;2024-03-02T02:59:59;94079.53;;;24.46;34.39
22389;BME280;11362;48.102;11.620;2024-03-02T03:02:27;94082.31;;;24.46;34.35
22389;BME280;11362;48.102;11.620;2024-03-02T03:04:53;94083.53;;;24.45;34.50
22389;BME280;11362;48.102;11.620;2024-03-02T03:07:18;94082.31;;;24.46;34.52
22389;BME280;11362;48.102;11.620;2024-03-02T03:09:43;94089.75;;;24.49;34.46
22389;BME280;11362;48.102;11.620;2024-03-02T03:12:08;94098.09;;;24.49;34.54
22389;BME280;11362;48.102;11.620;2024-03-02T03:14:34;94083.09;;;24.47;34.42
22389;BME280;11362;48.102;11.620;2024-03-02T03:16:59;94088.78;;;24.43;34.39
22389;BME280;11362;48.102;11.620;2024-03-02T03:19:24;94093.41;;;24.46;34.68
22389;BME280;11362;48.102;11.620;2024-03-02T03:21:49;94090.31;;;24.44;34.39
22389;BME280;11362;48.102;11.620;2024-03-02T03:24:15;94099.75;;;24.47;34.58
22389;BME280;11362;48.102;11.620;2024-03-02T03:26:40;94097.56;;;24.42;34.68
22389;BME280;11362;48.102;11.620;2024-03-02T03:29:05;94096.63;;;24.45;34.62
22389;BME280;11362;48.102;11.620;2024-03-02T03:31:30;94102.97;;;24.45;34.52
22389;BME280;11362;48.102;11.620;2024-03-02T03:33:56;94097.88;;;24.44;34.40
22389;BME280;11362;48.102;11.620;2024-03-02T03:36:21;94103.41;;;24.44;34.52
22389;BME280;11362;48.102;11.620;2024-03-02T03:38:46;94108.97;;;24.44;34.48
22389;BME280;11362;48.102;11.620;2024-03-02T03:41:12;94106.97;;;24.44;34.54
22389;BME280;11362;48.102;11.620;2024-03-02T03:43:37;94101.88;;;24.43;34.49
22389;BME280;11362;48.102;11.620;2024-03-02T03:46:02;94099.88;;;24.43;34.56
22389;BME280;11362;48.102;11.620;2024-03-02T03:48:28;94107.31;;;24.46;34.47
22389;BME280;11362;48.102;11.620;2024-03-02T03:50:53;94110.63;;;24.41;34.67
22389;BME280;11362;48.102;11.620;2024-03-02T03:53:18;94108.97;;;24.44;34.50
22389;BME280;11362;48.102;11.620;2024-03-02T03:55:43;94104.97;;;24.45;34.31
22389;BME280;11362;48.102;11.620;2024-03-02T03:58:09;94107.75;;;24.45;34.48
22389;BME280;11362;48.102;11.620;2024-03-02T04:00:34;94110.63;;;24.41;34.69
22389;BME280;11362;48.102;11.620;2024-03-02T04:02:59;94112.66;;;24.41;34.52
22389;BME280;11362;48.102;11.620;2024-03-02T04:05:25;94105.44;;;24.43;34.44
22389;BME280;11362;48.102;11.620;2024-03-02T04:07:50;94106.53;;;24.46;34.40
22389;BME280;11362;48.102;11.620;2024-03-02T04:10:15;94105.31;;;24.47;34.42
22389;BME280;11362;48.102;11.620;2024-03-02T04:12:40;94104.53;;;24.46;34.36
22389;BME280;11362;48.102;11.620;2024-03-02T04:15:07;94105.88;;;24.42;34.56
22389;BME280;11362;48.102;11.620;2024-03-02T04:17:33;94110.31;;;24.39;34.50
22389;BME280;11362;48.102;11.620;2024-03-02T04:19:58;94107.75;;;24.45;34.47
22389;BME280;11362;48.102;11.620;2024-03-02T04:22:23;94108.22;;;24.43;34.41
22389;BME280;11362;48.102;11.620;2024-03-02T04:24:49;94111.88;;;24.40;34.38
22389;BME280;11362;48.102;11.620;2024-03-02T04:27:14;94116.19;;;24.41;34.46
22389;BME280;11362;48.102;11.620;2024-03-02T04:29:39;94118.72;;;24.48;34.25
22389;BME280;11362;48.102;11.620;2024-03-02T04:32:05;94120.75;;;24.48;34.36
22389;BME280;11362;48.102;11.620;2024-03-02T04:34:30;94123.97;;;24.46;34.48
22389;BME280;11362;48.102;11.620;2024-03-02T04:36:55;94120.53;;;24.42;34.42
22389;BME280;11362;48.102;11.620;2024-03-02T04:39:21;94122.53;;;24.42;34.46
22389;BME280;11362;48.102;11.620;2024-03-02T04:41:46;94131.66;;;24.42;34.46
22389;BME280;11362;48.102;11.620;2024-03-02T04:44:11;94126.84;;;24.43;34.33
22389;BME280;11362;48.102;11.620;2024-03-02T04:46:36;94119.88;;;24.38;34.56
22389;BME280;11362;48.102;11.620;2024-03-02T04:49:02;94127.75;;;24.40;34.53
22389;BME280;11362;48.102;11.620;2024-03-02T04:51:27;94125.44;;;24.38;34.39
22389;BME280;11362;48.102;11.620;2024-03-02T04:53:52;94128.22;;;24.38;34.51
22389;BME280;11362;48.102;11.620;2024-03-02T04:56:18;94138.06;;;24.39;34.40
22389;BME280;11362;48.102;11.620;2024-03-02T04:58:43;94134.75;;;24.44;34.29
22389;BME280;11362;48.102;11.620;2024-03-02T05:01:08;94141.84;;;24.45;34.23
22389;BME280;11362;48.102;11.620;2024-03-02T05:03:34;94147.38;;;24.45;34.38
22389;BME280;11362;48.102;11.620;2024-03-02T05:05:59;94149.06;;;24.43;34.49
22389;BME280;11362;48.102;11.620;2024-03-02T05:08:24;94154.59;;;24.43;34.42
22389;BME280;11362;48.102;11.620;2024-03-02T05:10:49;94153.84;;;24.42;34.40
22389;BME280;11362;48.102;11.620;2024-03-02T05:13:15;94154.28;;;24.41;34.40
22389;BME280;11362;48.102;11.620;2024-03-02T05:15:40;94165.84;;;24.39;34.40
22389;BME280;11362;48.102;11.620;2024-03-02T05:18:05;94158.75;;;24.38;34.45
22389;BME280;11362;48.102;11.620;2024-03-02T05:20:30;94163.50;;;24.38;34.35
22389;BME280;11362;48.102;11.620;2024-03-02T05:22:56;94160.72;;;24.38;34.54
22389;BME280;11362;48.102;11.620;2024-03-02T05:25:21;94151.31;;;24.35;34.29
22389;BME280;11362;48.102;11.620;2024-03-02T05:27:46;94156.63;;;24.42;34.52
22389;BME280;11362;48.102;11.620;2024-03-02T05:30:12;94159.06;;;24.40;34.42
22389;BME280;11362;48.102;11.620;2024-03-02T05:32:37;94158.28;;;24.40;34.27
22389;BME280;11362;48.102;11.620;2024-03-02T05:35:03;94159.06;;;24.40;34.48
22389;BME280;11362;48.102;11.620;2024-03-02T05:37:28;94150.41;;;24.38;34.61
22389;BME280;11362;48.102;11.620;2024-03-02T05:39:53;94165.28;;;24.44;34.64
22389;BME280;11362;48.102;11.620;2024-03-02T05:42:18;94163.25;;;24.45;34.54
22389;BME280;11362;48.102;11.620;2024-03-02T05:44:44;94158.50;;;24.45;34.86
22389;BME280;11362;48.102;11.620;2024-03-02T05:47:09;94164.94;;;24.42;34.46
22389;BME280;11362;48.102;11.620;2024-03-02T05:49:35;94164.16;;;24.42;34.76
22389;BME280;11362;48.102;11.620;2024-03-02T05:52:01;94156.63;;;24.42;34.90
22389;BME280;11362;48.102;11.620;2024-03-02T05:54:26;94162.50;;;24.44;34.68
22389;BME280;11362;48.102;11.620;2024-03-02T05:56:51;94164.72;;;24.49;34.59
22389;BME280;11362;48.102;11.620;2024-03-02T05:59:16;94136.94;;;24.49;34.55
22389;BME280;11362;48.102;11.620;2024-03-02T06:01:43;94140.16;;;24.48;34.62
22389;BME280;11362;48.102;11.620;2024-03-02T06:04:09;94135.38;;;24.48;34.51
22389;BME280;11362;48.102;11.620;2024-03-02T06:06:34;94141.84;;;24.45;34.58
22389;BME280;11362;48.102;11.620;2024-03-02T06:09:01;94137.50;;;24.44;34.54
22389;BME280;11362;48.102;11.620;2024-03-02T06:11:26;94146.59;;;24.45;34.52
22389;BME280;11362;48.102;11.620;2024-03-02T06:13:51;94140.28;;;24.44;34.69
22389;BME280;11362;48.102;11.620;2024-03-02T06:16:17;94172.81;;;24.44;34.70
22389;BME280;11362;48.102;11.620;2024-03-02T06:18:42;94176.25;;;24.48;35.40
22389;BME280;11362;48.102;11.620;2024-03-02T06:21:07;94171.81;;;24.50;35.27
22389;BME280;11362;48.102;11.620;2024-03-02T06:23:32;94166.25;;;24.50;35.62
22389;BME280;11362;48.102;11.620;2024-03-02T06:25:58;94172.13;;;24.52;35.53
22389;BME280;11362;48.102;11.620;2024-03-02T06:28:23;94177.25;;;24.54;35.56
22389;BME280;11362;48.102;11.620;2024-03-02T06:30:48;94165.47;;;24.50;35.74
22389;BME280;11362;48.102;11.620;2024-03-02T06:33:14;94179.13;;;24.57;35.65
22389;BME280;11362;48.102;11.620;2024-03-02T06:35:39;94171.25;;;24.55;35.73
22389;BME280;11362;48.102;11.620;2024-03-02T06:38:04;94172.78;;;24.56;35.63
22389;BME280;11362;48.102;11.620;2024-03-02T06:40:30;94175.69;;;24.53;35.99
22389;BME280;11362;48.102;11.620;2024-03-02T06:42:55;94174.91;;;24.52;36.06
22389;BME280;11362;48.102;11.620;2024-03-02T06:45:20;94169.66;;;24.54;35.98
22389;BME280;11362;48.102;11.620;2024-03-02T06:47:45;94159.78;;;24.53;36.08
22389;BME280;11362;48.102;11.620;2024-03-02T06:50:11;94167.38;;;24.53;36.23
22389;BME280;11362;48.102;11.620;2024-03-02T06:52:36;94157.94;;;24.50;36.61
22389;BME280;11362;48.102;11.620;2024-03-02T06:55:02;94166.91;;;24.54;36.48
22389;BME280;11362;48.102;11.620;2024-03-02T06:57:27;94167.69;;;24.55;36.50
22389;BME280;11362;48.102;11.620;2024-03-02T06:59:53;94166.03;;;24.57;36.73
22389;BME280;11362;48.102;11.620;2024-03-02T07:02:18;94172.34;;;24.58;37.06
22389;BME280;11362;48.102;11.620;2024-03-02T07:04:43;94167.25;;;24.56;36.71
22389;BME280;11362;48.102;11.620;2024-03-02T07:07:09;94157.25;;;24.59;36.99
22389;BME280;11362;48.102;11.620;2024-03-02T07:09:34;94165.13;;;24.60;37.03
22389;BME280;11362;48.102;11.620;2024-03-02T07:11:59;94156.81;;;24.60;36.69
22389;BME280;11362;48.102;11.620;2024-03-02T07:14:24;94154.03;;;24.60;36.53
22389;BME280;11362;48.102;11.620;2024-03-02T07:16:50;94161.13;;;24.61;36.54
22389;BME280;11362;48.102;11.620;2024-03-02T07:19:15;94161.13;;;24.61;36.37
22389;BME280;11362;48.102;11.620;2024-03-02T07:21:40;94161.13;;;24.61;36.75
22389;BME280;11362;48.102;11.620;2024-03-02T07:24:05;94155.25;;;24.59;36.65
22389;BME280;11362;48.102;11.620;2024-03-02T07:26:31;94167.91;;;24.60;36.52
22389;BME280;11362;48.102;11.620;2024-03-02T07:28:57;94177.78;;;24.61;36.91
22389;BME280;11362;48.102;11.620;2024-03-02T07:31:22;94170.69;;;24.60;36.74
22389;BME280;11362;48.102;11.620;2024-03-02T07:33:47;94166.69;;;24.61;36.59
22389;BME280;11362;48.102;11.620;2024-03-02T07:36:13;94171.00;;;24.62;36.70
22389;BME280;11362;48.102;11.620;2024-03-02T07:38:39;94166.81;;;24.58;36.39
22389;BME280;11362;48.102;11.620;2024-03-02T07:41:04;94164.69;;;24.62;36.83
22389;BME280;11362;48.102;11.620;2024-03-02T07:43:30;94172.66;;;24.60;36.61
22389;BME280;11362;48.102;11.620;2024-03-02T07:45:55;94177.78;;;24.61;36.37
22389;BME280;11362;48.102;11.620;2024-03-02T07:48:21;94183.66;;;24.63;36.34
22389;BME280;11362;48.102;11.620;2024-03-02T07:50:46;94176.91;;;24.64;36.34
22389;BME280;11362;48.102;11.620;2024-03-02T07:53:11;94180.44;;;24.65;36.33
22389;BME280;11362;48.102;11.620;2024-03-02T07:55:37;94182.78;;;24.66;36.27
22389;BME280;11362;48.102;11.620;2024-03-02T07:58:02;94189.44;;;24.69;36.26
22389;BME280;11362;48.102;11.620;2024-03-02T08:00:28;94188.66;;;24.68;36.19
22389;BME280;11362;48.102;11.620;2024-03-02T08:02:53;94192.66;;;24.67;36.23
22389;BME280;11362;48.102;11.620;2024-03-02T08:05:19;94196.66;;;24.66;36.31
22389;BME280;11362;48.102;11.620;2024-03-02T08:07:45;94163.66;;;24.68;36.10
22389;BME280;11362;48.102;11.620;2024-03-02T08:10:11;94168.09;;;24.66;35.89
22389;BME280;11362;48.102;11.620;2024-03-02T08:12:36;94160.44;;;24.70;35.94
22389;BME280;11362;48.102;11.620;2024-03-02T08:15:02;94159.53;;;24.73;35.98
22389;BME280;11362;48.102;11.620;2024-03-02T08:17:27;94187.09;;;24.67;35.91
22389;BME280;11362;48.102;11.620;2024-03-02T08:19:52;94183.09;;;24.68;36.08
22389;BME280;11362;48.102;11.620;2024-03-02T08:22:18;94195.31;;;24.71;36.20
22389;BME280;11362;48.102;11.620;2024-03-02T08:24:44;94157.66;;;24.70;36.09
22389;BME280;11362;48.102;11.620;2024-03-02T08:27:10;94134.66;;;24.69;35.96
22389;BME280;11362;48.102;11.620;2024-03-02T08:29:35;94141.00;;;24.70;36.04
22389;BME280;11362;48.102;11.620;2024-03-02T08:32:00;94137.44;;;24.69;35.90
22389;BME280;11362;48.102;11.620;2024-03-02T08:34:26;94171.66;;;24.66;35.69
22389;BME280;11362;48.102;11.620;2024-03-02T08:36:51;94178.75;;;24.67;35.83
22389;BME280;11362;48.102;11.620;2024-03-02T08:39:17;94176.00;;;24.67;35.62
22389;BME280;11362;48.102;11.620;2024-03-02T08:41:46;94179.56;;;24.68;35.69
22389;BME280;11362;48.102;11.620;2024-03-02T08:44:13;94180.88;;;24.63;35.52
22389;BME280;11362;48.102;11.620;2024-03-02T08:46:41;94182.47;;;24.64;35.59
22389;BME280;11362;48.102;11.620;2024-03-02T08:49:07;94184.75;;;24.66;35.66
22389;BME280;11362;48.102;11.620;2024-03-02T08:51:32;94178.44;;;24.65;35.76
22389;BME280;11362;48.102;11.620;2024-03-02T08:53:58;94234.75;;;24.66;35.42
22389;BME280;11362;48.102;11.620;2024-03-02T08:56:24;94234.75;;;24.66;35.70
22389;BME280;11362;48.102;11.620;2024-03-02T08:58:51;94233.97;;;24.65;35.76
22389;BME280;11362;48.102;11.620;2024-03-02T09:01:17;94226.41;;;24.66;35.70
22389;BME280;11362;48.102;11.620;2024-03-02T09:03:43;94231.53;;;24.67;35.40
22389;BME280;11362;48.102;11.620;2024-03-02T09:06:08;94227.97;;;24.67;35.77
22389;BME280;11362;48.102;11.620;2024-03-02T09:08:33;94224.19;;;24.73;35.97
22389;BME280;11362;48.102;11.620;2024-03-02T09:10:59;94233.81;;;24.81;36.44
22389;BME280;11362;48.102;11.620;2024-03-02T09:13:24;94235.69;;;24.84;36.39
22389;BME280;11362;48.102;11.620;2024-03-02T09:15:49;94236.78;;;24.87;36.45
22389;BME280;11362;48.102;11.620;2024-03-02T09:18:14;94233.13;;;24.90;36.85
22389;BME280;11362;48.102;11.620;2024-03-02T09:20:40;94237.13;;;24.89;36.57
22389;BME280;11362;48.102;11.620;2024-03-02T09:23:05;94215.66;;;24.89;36.55
22389;BME280;11362;48.102;11.620;2024-03-02T09:25:30;94213.63;;;25.02;36.16
22389;BME280;11362;48.102;11.620;2024-03-02T09:27:56;94207.75;;;25.00;35.62
22389;BME280;11362;48.102;11.620;2024-03-02T09:30:21;94179.50;;;25.02;35.81
22389;BME280;11362;48.102;11.620;2024-03-02T09:32:46;94233.63;;;24.97;35.84
22389;BME280;11362;48.102;11.620;2024-03-02T09:35:11;94191.00;;;24.91;35.69
22389;BME280;11362;48.102;11.620;2024-03-02T09:37:37;94200.31;;;24.97;35.77
22389;BME280;11362;48.102;11.620;2024-03-02T09:40:03;94202.88;;;24.92;35.12
22389;BME280;11362;48.102;11.620;2024-03-02T09:42:29;94192.88;;;24.94;35.19
22389;BME280;11362;48.102;11.620;2024-03-02T09:44:54;94191.34;;;24.93;35.18
22389;BME280;11362;48.102;11.620;2024-03-02T09:47:20;94194.25;;;24.90;35.33
22389;BME280;11362;48.102;11.620;2024-03-02T09:49:45;94183.75;;;24.94;34.98
22389;BME280;11362;48.102;11.620;2024-03-02T09:52:11;94189.13;;;24.88;35.31
22389;BME280;11362;48.102;11.620;2024-03-02T09:54:36;94191.00;;;24.91;35.21
22389;BME280;11362;48.102;11.620;2024-03-02T09:57:02;94181.09;;;24.90;35.24
22389;BME280;11362;48.102;11.620;2024-03-02T09:59:28;94185.78;;;24.93;35.16
22389;BME280;11362;48.102;11.620;2024-03-02T10:02:01;94179.00;;;24.94;34.99
22389;BME280;11362;48.102;11.620;2024-03-02T10:04:27;94180.22;;;24.93;35.13
22389;BME280;11362;48.102;11.620;2024-03-02T10:07:12;94181.75;;;24.94;34.84
22389;BME280;11362;48.102;11.620;2024-03-02T10:09:38;94177.44;;;24.93;34.95
22389;BME280;11362;48.102;11.620;2024-03-02T10:12:05;94188.31;;;25.00;34.93
22389;BME280;11362;48.102;11.620;2024-03-02T10:14:30;94184.41;;;24.98;34.79
22389;BME280;11362;48.102;11.620;2024-03-02T10:17:02;94178.38;;;24.99;34.80
22389;BME280;11362;48.102;11.620;2024-03-02T10:19:27;94175.75;;;24.96;34.87
22389;BME280;11362;48.102;11.620;2024-03-02T10:21:54;94169.44;;;24.95;34.96
22389;BME280;11362;48.102;11.620;2024-03-02T10:24:21;94167.22;;;24.90;34.76
22389;BME280;11362;48.102;11.620;2024-03-02T10:26:47;94168.31;;;24.93;34.87
22389;BME280;11362;48.102;11.620;2024-03-02T10:29:12;94170.41;;;25.01;34.53
22389;BME280;11362;48.102;11.620;2024-03-02T10:31:39;94168.38;;;25.02;34.50
22389;BME280;11362;48.102;11.620;2024-03-02T10:34:05;94162.94;;;24.98;34.79
22389;BME280;11362;48.102;11.620;2024-03-02T10:36:34;94154.25;;;24.87;34.83
22389;BME280;11362;48.102;11.620;2024-03-02T10:39:02;94155.22;;;24.93;34.55
22389;BME280;11362;48.102;11.620;2024-03-02T10:41:28;94158.44;;;24.92;34.66
22389;BME280;11362;48.102;11.620;2024-03-02T10:43:54;94157.66;;;24.91;34.62
22389;BME280;11362;48.102;11.620;2024-03-02T10:46:22;94154.13;;;24.91;34.60
22389;BME280;11362;48.102;11.620;2024-03-02T10:48:47;94147.50;;;24.97;34.62
22389;BME280;11362;48.102;11.620;2024-03-02T10:51:13;94147.97;;;24.96;34.46
22389;BME280;11362;48.102;11.620;2024-03-02T10:53:38;94144.09;;;24.93;34.64
22389;BME280;11362;48.102;11.620;2024-03-02T10:56:07;94135.78;;;24.93;34.57
22389;BME280;11362;48.102;11.620;2024-03-02T10:58:33;94127.19;;;25.00;34.36
22389;BME280;11362;48.102;11.620;2024-03-02T11:01:01;94132.72;;;25.00;34.55
22389;BME280;11362;48.102;11.620;2024-03-02T11:03:29;94125.28;;;24.97;34.59
22389;BME280;11362;48.102;11.620;2024-03-02T11:05:59;94120.19;;;24.96;34.44
22389;BME280;11362;48.102;11.620;2024-03-02T11:08:26;94113.56;;;24.93;34.58
22389;BME280;11362;48.102;11.620;2024-03-02T11:11:06;94111.09;;;24.95;34.49
22389;BME280;11362;48.102;11.620;2024-03-02T11:13:32;94105.97;;;24.94;34.59
22389;BME280;11362;48.102;11.620;2024-03-02T11:16:06;94101.34;;;24.91;34.51
22389;BME280;11362;48.102;11.620;2024-03-02T11:18:34;94111.53;;;24.94;34.56
22389;BME280;11362;48.102;11.620;2024-03-02T11:21:02;94109.41;;;24.98;34.45
22389;BME280;11362;48.102;11.620;2024-03-02T11:23:34;94101.06;;;24.98;34.26
22389;BME280;11362;48.102;11.620;2024-03-02T11:26:22;94105.41;;;24.99;34.52
22389;BME280;11362;48.102;11.620;2024-03-02T11:28:47;94102.19;;;25.00;34.68
22389;BME280;11362;48.102;11.620;2024-03-02T11:31:12;94093.84;;;25.00;34.54
22389;BME280;11362;48.102;11.620;2024-03-02T11:33:38;94086.41;;;24.97;34.03
22389;BME280;11362;48.102;11.620;2024-03-02T11:36:06;94068.28;;;24.84;34.38
22389;BME280;11362;48.102;11.620;2024-03-02T11:38:32;94081.16;;;24.99;34.29
22389;BME280;11362;48.102;11.620;2024-03-02T11:40:59;94084.72;;;25.00;34.60
22389;BME280;11362;48.102;11.620;2024-03-02T11:43:27;94077.66;;;25.08;34.41
22389;BME280;11362;48.102;11.620;2024-03-02T11:46:00;94075.31;;;25.06;34.57
22389;BME280;11362;48.102;11.620;2024-03-02T11:48:26;94065.44;;;25.05;34.79
22389;BME280;11362;48.102;11.620;2024-03-02T11:50:52;94021.94;;;25.11;34.43
22389;BME280;11362;48.102;11.620;2024-03-02T11:53:19;94012.06;;;25.10;34.46
22389;BME280;11362;48.102;11.620;2024-03-02T11:55:45;94009.28;;;25.10;35.10
22389;BME280;11362;48.102;11.620;2024-03-02T11:58:10;94031.84;;;25.12;34.79
22389;BME280;11362;48.102;11.620;2024-03-02T12:00:36;94034.75;;;25.09;35.07
22389;BME280;11362;48.102;11.620;2024-03-02T12:05:31;94027.66;;;25.08;34.95
22389;BME280;11362;48.102;11.620;2024-03-02T12:07:58;94023.63;;;25.09;35.40
22389;BME280;11362;48.102;11.620;2024-03-02T12:10:24;94026.75;;;25.11;35.40
22389;BME280;11362;48.102;11.620;2024-03-02T12:13:00;94025.97;;;25.10;35.54
22389;BME280;11362;48.102;11.620;2024-03-02T12:15:27;94022.75;;;25.12;35.68
22389;BME280;11362;48.102;11.620;2024-03-02T12:17:54;94018.72;;;25.13;35.78
22389;BME280;11362;48.102;11.620;2024-03-02T12:20:20;94036.16;;;25.13;36.09
22389;BME280;11362;48.102;11.620;2024-03-02T12:22:45;94025.53;;;25.12;35.66
22389;BME280;11362;48.102;11.620;2024-03-02T12:25:10;94022.88;;;25.08;35.77
22389;BME280;11362;48.102;11.620;2024-03-02T12:27:36;94017.91;;;25.03;35.41
22389;BME280;11362;48.102;11.620;2024-03-02T12:30:01;94025.97;;;25.10;34.79
22389;BME280;11362;48.102;11.620;2024-03-02T12:32:26;94015.94;;;25.13;35.15
22389;BME280;11362;48.102;11.620;2024-03-02T12:34:52;94017.03;;;25.15;35.47
22389;BME280;11362;48.102;11.620;2024-03-02T12:37:17;94011.47;;;25.15;35.42
22389;BME280;11362;48.102;11.620;2024-03-02T12:39:45;94002.81;;;25.13;35.37
22389;BME280;11362;48.102;11.620;2024-03-02T12:42:10;93999.09;;;25.07;35.44
22389;BME280;11362;48.102;11.620;2024-03-02T12:44:35;94004.38;;;25.14;35.36
22389;BME280;11362;48.102;11.620;2024-03-02T12:47:01;93992.63;;;25.10;35.14